Time;durP1;ratioP1;P1;durP2;ratioP2;P2;SDS_P1;SDS_P2;PMS_P1;PMS_P2;Temp;Humidity;BMP_temperature;BMP_pressure;BME280_temperature;BME280_humidity;BME280_pressure;Samples;Min_cycle;Max_cycle;Signal;HPM_P1;HPM_P2
2024/03/16 00:02:07;;;;;;;5.95;1.63;;;13.00;90.00;;;;;;5072111;28;20056;-66
2024/03/16 00:04:33;;;;;;;5.07;1.63;;;12.90;89.90;;;;;;5071329;28;20036;-67
2024/03/16 00:06:58;;;;;;;4.90;1.52;;;12.90;89.90;;;;;;5071109;28;20033;-68
2024/03/16 00:09:24;;;;;;;4.22;1.17;;;12.90;89.90;;;;;;5071011;28;20024;-66
2024/03/16 00:11:50;;;;;;;4.88;1.40;;;12.90;89.90;;;;;;5070154;28;20150;-66
2024/03/16 00:14:16;;;;;;;2.47;1.23;;;13.00;90.00;;;;;;5071595;28;20024;-65
2024/03/16 00:16:42;;;;;;;5.63;1.60;;;12.90;89.80;;;;;;5070195;28;20473;-68
2024/03/16 00:19:08;;;;;;;7.10;2.20;;;13.00;89.90;;;;;;5068503;28;20054;-67
2024/03/16 00:21:33;;;;;;;7.55;1.90;;;12.90;89.90;;;;;;5069747;28;20020;-67
2024/03/16 00:23:59;;;;;;;4.53;1.35;;;12.90;89.90;;;;;;5070437;28;20095;-67
2024/03/16 00:26:25;;;;;;;6.13;1.67;;;13.00;90.00;;;;;;5070805;28;20034;-68
2024/03/16 00:28:50;;;;;;;4.35;1.40;;;12.90;89.90;;;;;;5070511;28;20078;-67
2024/03/16 00:31:18;;;;;;;3.78;1.17;;;12.90;89.90;;;;;;5069874;28;20021;-68
2024/03/16 00:33:43;;;;;;;4.20;1.38;;;12.90;90.00;;;;;;5070104;28;20027;-66
2024/03/16 00:36:09;;;;;;;2.65;1.20;;;12.90;90.00;;;;;;5070921;28;20032;-68
2024/03/16 00:38:35;;;;;;;2.67;1.10;;;13.00;90.00;;;;;;5069384;28;20534;-68
2024/03/16 00:41:02;;;;;;;3.63;1.15;;;13.00;90.00;;;;;;5070564;28;20038;-68
2024/03/16 00:43:28;;;;;;;3.33;1.20;;;12.90;90.00;;;;;;5070603;28;20024;-67
2024/03/16 00:45:53;;;;;;;3.17;1.35;;;12.90;90.00;;;;;;5070184;28;20069;-67
2024/03/16 00:48:19;;;;;;;5.30;1.50;;;12.90;90.00;;;;;;5069622;28;20017;-67
2024/03/16 00:50:44;;;;;;;3.10;1.20;;;12.80;90.10;;;;;;5072069;28;20506;-66
2024/03/16 00:53:10;;;;;;;5.00;1.45;;;12.80;90.20;;;;;;5068434;28;20025;-66
2024/03/16 00:55:35;;;;;;;5.55;1.48;;;12.80;90.30;;;;;;5071238;28;20046;-68
2024/03/16 00:58:04;;;;;;;4.80;1.40;;;12.70;90.30;;;;;;5070015;28;20038;-66
2024/03/16 01:00:31;;;;;;;3.20;1.20;;;12.70;90.40;;;;;;5069592;28;20032;-68
2024/03/16 01:02:57;;;;;;;6.40;1.88;;;12.70;90.40;;;;;;5068767;28;20032;-67
2024/03/16 01:05:26;;;;;;;6.28;1.80;;;12.60;90.60;;;;;;5067795;28;20020;-66
2024/03/16 01:07:52;;;;;;;4.20;1.40;;;12.50;90.70;;;;;;5071228;28;20038;-68
2024/03/16 01:10:17;;;;;;;3.70;1.73;;;12.50;90.80;;;;;;5070463;28;20467;-66
2024/03/16 01:12:43;;;;;;;5.05;2.13;;;12.50;90.80;;;;;;5067173;28;20031;-67
2024/03/16 01:15:09;;;;;;;6.63;1.70;;;12.50;90.90;;;;;;5068452;28;20513;-67
2024/03/16 01:17:35;;;;;;;5.47;1.58;;;12.50;90.90;;;;;;5068612;28;20479;-66
2024/03/16 01:20:01;;;;;;;4.68;1.80;;;12.40;90.90;;;;;;5069620;28;20031;-66
2024/03/16 01:22:26;;;;;;;7.07;1.90;;;12.50;91.00;;;;;;5069567;28;20032;-67
2024/03/16 01:24:52;;;;;;;5.30;1.80;;;12.50;91.00;;;;;;5068499;28;20449;-66
2024/03/16 01:27:18;;;;;;;5.72;1.52;;;12.40;91.00;;;;;;5068893;28;20067;-65
2024/03/16 01:29:44;;;;;;;4.25;1.63;;;12.40;91.10;;;;;;5070229;28;20143;-66
2024/03/16 01:32:10;;;;;;;3.33;1.50;;;12.40;91.20;;;;;;5068945;28;20078;-67
2024/03/16 01:34:36;;;;;;;5.43;2.20;;;12.40;91.20;;;;;;5068058;28;20041;-66
2024/03/16 01:37:02;;;;;;;5.45;2.05;;;12.40;91.20;;;;;;5072857;28;20044;-66
2024/03/16 01:39:29;;;;;;;4.05;1.95;;;12.40;91.20;;;;;;5069363;28;20532;-67
2024/03/16 01:41:55;;;;;;;5.45;2.25;;;12.30;91.20;;;;;;5071698;28;20023;-66
2024/03/16 01:44:20;;;;;;;3.35;1.90;;;12.30;91.30;;;;;;5072687;28;20032;-67
2024/03/16 01:46:47;;;;;;;4.57;2.25;;;12.30;91.30;;;;;;5069417;28;20039;-66
2024/03/16 01:49:12;;;;;;;4.85;2.20;;;12.30;91.40;;;;;;5069290;28;20099;-67
2024/03/16 01:51:39;;;;;;;3.95;1.70;;;12.30;91.40;;;;;;5065410;28;20463;-66
2024/03/16 01:54:05;;;;;;;5.07;2.42;;;12.30;91.50;;;;;;5068700;28;20088;-67
2024/03/16 01:56:34;;;;;;;5.80;2.10;;;12.30;91.50;;;;;;5070700;28;20023;-66
2024/03/16 01:58:59;;;;;;;2.78;1.75;;;12.20;91.60;;;;;;5068889;28;20025;-67
2024/03/16 02:01:26;;;;;;;9.65;3.60;;;12.20;91.70;;;;;;5067056;28;20119;-67
2024/03/16 02:03:54;;;;;;;8.35;3.30;;;12.20;91.80;;;;;;5066817;28;20461;-66
2024/03/16 02:06:19;;;;;;;4.70;2.60;;;12.20;91.80;;;;;;5070214;28;20017;-66
2024/03/16 02:08:45;;;;;;;6.32;3.00;;;12.10;91.80;;;;;;5068000;28;20082;-67
2024/03/16 02:11:10;;;;;;;4.82;2.40;;;12.10;91.90;;;;;;5069990;28;20109;-66
2024/03/16 02:13:36;;;;;;;5.93;2.50;;;12.10;91.90;;;;;;5070518;28;20020;-66
2024/03/16 02:16:02;;;;;;;7.28;3.00;;;12.10;91.90;;;;;;5071289;28;20102;-67
2024/03/16 02:18:27;;;;;;;5.18;2.20;;;12.10;92.00;;;;;;5068510;28;20029;-67
2024/03/16 02:20:53;;;;;;;4.47;2.20;;;12.10;92.00;;;;;;5067300;28;20021;-66
2024/03/16 02:23:20;;;;;;;4.95;2.55;;;12.10;92.10;;;;;;5068769;28;21438;-67
2024/03/16 02:25:47;;;;;;;4.28;2.10;;;12.10;92.10;;;;;;5069989;28;20218;-67
2024/03/16 02:28:12;;;;;;;3.75;2.20;;;12.10;92.20;;;;;;5065336;28;20027;-68
2024/03/16 02:30:38;;;;;;;4.28;2.00;;;12.10;92.30;;;;;;5066940;28;20044;-68
2024/03/16 02:33:07;;;;;;;5.65;2.10;;;12.10;92.30;;;;;;5067454;28;20040;-67
2024/03/16 02:35:33;;;;;;;4.65;2.70;;;12.10;92.30;;;;;;5066893;28;20021;-67
2024/03/16 02:37:59;;;;;;;4.47;2.20;;;12.20;92.20;;;;;;5067165;28;20035;-67
2024/03/16 02:40:24;;;;;;;6.63;2.60;;;12.10;92.20;;;;;;5067581;28;20020;-67
2024/03/16 02:42:50;;;;;;;5.13;2.60;;;12.10;92.30;;;;;;5067568;28;20037;-65
2024/03/16 02:45:16;;;;;;;3.33;1.80;;;12.10;92.40;;;;;;5069365;28;20595;-65
2024/03/16 02:47:43;;;;;;;5.93;2.60;;;12.10;92.40;;;;;;5066522;28;20025;-65
2024/03/16 02:50:10;;;;;;;5.72;2.40;;;12.10;92.40;;;;;;5066771;28;20028;-65
2024/03/16 02:52:36;;;;;;;7.40;3.20;;;12.10;92.30;;;;;;5068167;28;20028;-66
2024/03/16 02:55:02;;;;;;;9.52;3.72;;;12.10;92.40;;;;;;5069184;28;20028;-67
2024/03/16 02:57:28;;;;;;;5.40;2.85;;;12.00;92.40;;;;;;5066912;28;20032;-67
2024/03/16 02:59:54;;;;;;;8.35;3.70;;;12.00;92.50;;;;;;5066172;28;20028;-68
2024/03/16 03:02:23;;;;;;;7.15;3.28;;;11.90;92.50;;;;;;5069196;28;20043;-66
2024/03/16 03:04:50;;;;;;;8.98;3.30;;;11.90;92.60;;;;;;5072906;28;20034;-66
2024/03/16 03:07:15;;;;;;;11.43;4.20;;;11.80;92.60;;;;;;5070932;28;20032;-68
2024/03/16 03:09:41;;;;;;;6.88;3.65;;;11.70;92.60;;;;;;5072474;28;20079;-67
2024/03/16 03:12:07;;;;;;;6.18;3.00;;;11.70;92.70;;;;;;5078053;28;20028;-67
2024/03/16 03:14:32;;;;;;;5.90;2.80;;;11.70;92.60;;;;;;5073709;28;20017;-68
2024/03/16 03:16:58;;;;;;;5.90;2.50;;;11.70;92.60;;;;;;5068472;28;20048;-69
2024/03/16 03:19:24;;;;;;;7.20;2.90;;;11.70;92.50;;;;;;5067556;28;20034;-68
2024/03/16 03:21:50;;;;;;;5.55;2.53;;;11.60;92.50;;;;;;5070644;28;20097;-66
2024/03/16 03:24:15;;;;;;;5.88;2.50;;;11.60;92.50;;;;;;5079595;28;20024;-67
2024/03/16 03:26:41;;;;;;;4.80;2.30;;;11.40;92.50;;;;;;5069756;28;20032;-67
2024/03/16 03:29:06;;;;;;;4.97;2.10;;;11.40;92.60;;;;;;5074934;28;20021;-69
2024/03/16 03:31:32;;;;;;;5.88;2.58;;;11.40;92.60;;;;;;5072285;28;20038;-68
2024/03/16 03:33:58;;;;;;;4.45;2.28;;;11.30;92.60;;;;;;5066558;28;20621;-66
2024/03/16 03:36:23;;;;;;;3.17;2.10;;;11.30;92.60;;;;;;5067372;28;20395;-66
2024/03/16 03:38:49;;;;;;;2.60;2.40;;;11.20;92.50;;;;;;5074369;28;20108;-67
2024/03/16 03:41:14;;;;;;;4.05;2.35;;;11.20;92.50;;;;;;5073706;28;20063;-67
2024/03/16 03:43:46;;;;;;;3.50;2.20;;;11.20;92.60;;;;;;5071622;28;20048;-65
2024/03/16 03:46:28;;;;;;;;;;;11.20;92.60;;;;;;5075911;28;20027;-66
2024/03/16 03:49:10;;;;;;;2.53;1.92;;;11.20;92.50;;;;;;5083881;28;20030;-66
2024/03/16 03:51:36;;;;;;;3.28;2.55;;;11.10;92.60;;;;;;5076378;28;20036;-67
2024/03/16 03:54:04;;;;;;;3.25;2.00;;;11.10;92.70;;;;;;5069899;28;20486;-66
2024/03/16 03:56:30;;;;;;;3.13;2.28;;;11.10;92.70;;;;;;5069515;28;20055;-66
2024/03/16 03:58:55;;;;;;;2.90;2.30;;;11.10;92.60;;;;;;5082046;28;20052;-67
2024/03/16 04:01:21;;;;;;;3.13;2.72;;;11.10;92.60;;;;;;5069363;28;20495;-67
2024/03/16 04:03:46;;;;;;;3.78;2.50;;;11.10;92.50;;;;;;5065468;28;20485;-67
2024/03/16 04:06:12;;;;;;;2.85;2.22;;;11.00;92.50;;;;;;5068764;28;20024;-66
2024/03/16 04:08:37;;;;;;;3.83;2.40;;;11.00;92.50;;;;;;5071550;28;20025;-66
2024/03/16 04:11:04;;;;;;;3.67;2.70;;;10.90;92.50;;;;;;5068114;28;20104;-66
2024/03/16 04:13:30;;;;;;;4.05;2.30;;;10.80;92.60;;;;;;5075524;28;20008;-65
2024/03/16 04:15:55;;;;;;;2.83;2.03;;;10.70;92.70;;;;;;5074494;28;20094;-67
2024/03/16 04:18:21;;;;;;;2.15;1.50;;;10.70;92.70;;;;;;5084517;28;20016;-67
2024/03/16 04:20:46;;;;;;;2.30;1.48;;;10.60;92.80;;;;;;5074544;28;20020;-66
2024/03/16 04:23:12;;;;;;;1.92;1.20;;;10.50;92.80;;;;;;5075190;28;20652;-66
2024/03/16 04:25:38;;;;;;;1.75;1.00;;;10.50;92.90;;;;;;5075187;28;20201;-66
2024/03/16 04:28:05;;;;;;;1.48;1.20;;;10.40;92.90;;;;;;5076658;28;20534;-68
2024/03/16 04:30:30;;;;;;;1.23;0.90;;;10.50;92.90;;;;;;5078713;28;20055;-66
2024/03/16 04:32:56;;;;;;;1.70;1.10;;;10.40;92.80;;;;;;5076168;28;20566;-67
2024/03/16 04:35:21;;;;;;;0.88;0.70;;;10.40;92.90;;;;;;5079169;28;20024;-66
2024/03/16 04:37:47;;;;;;;0.80;0.80;;;10.40;92.90;;;;;;5075397;28;20479;-67
2024/03/16 04:40:12;;;;;;;1.08;1.05;;;10.40;92.90;;;;;;5073090;28;20112;-67
2024/03/16 04:42:38;;;;;;;1.60;1.20;;;10.30;92.90;;;;;;5073202;28;20510;-67
2024/03/16 04:45:04;;;;;;;1.70;0.70;;;10.30;92.90;;;;;;5075210;28;20024;-67
2024/03/16 04:47:30;;;;;;;1.45;0.80;;;10.30;92.90;;;;;;5071299;28;20025;-65
2024/03/16 04:49:55;;;;;;;1.67;0.90;;;10.30;92.90;;;;;;5076243;28;20020;-65
2024/03/16 04:52:21;;;;;;;1.85;0.60;;;10.30;92.90;;;;;;5071742;28;20073;-67
2024/03/16 04:54:46;;;;;;;1.42;0.80;;;10.30;92.90;;;;;;5077978;28;20024;-66
2024/03/16 04:57:12;;;;;;;0.60;0.60;;;10.40;92.80;;;;;;5070850;28;20039;-68
2024/03/16 04:59:39;;;;;;;0.70;0.70;;;10.40;92.80;;;;;;5072423;28;20082;-65
2024/03/16 05:02:04;;;;;;;1.58;0.60;;;10.40;92.70;;;;;;5072727;28;20021;-65
2024/03/16 05:04:30;;;;;;;1.63;0.90;;;10.30;92.70;;;;;;5073545;28;20030;-65
2024/03/16 05:06:55;;;;;;;1.60;0.70;;;10.30;92.80;;;;;;5077147;28;20025;-66
2024/03/16 05:09:22;;;;;;;1.83;0.75;;;10.20;92.80;;;;;;5075239;28;20086;-65
2024/03/16 05:11:47;;;;;;;1.00;0.63;;;10.20;92.90;;;;;;5072424;28;20032;-65
2024/03/16 05:14:13;;;;;;;2.38;0.70;;;10.20;92.90;;;;;;5070324;28;20121;-65
2024/03/16 05:16:41;;;;;;;0.98;0.60;;;10.20;92.90;;;;;;5073268;28;20052;-66
2024/03/16 05:19:07;;;;;;;2.08;0.82;;;10.30;92.90;;;;;;5068084;28;20029;-67
2024/03/16 05:21:36;;;;;;;1.63;0.90;;;10.20;92.80;;;;;;5071364;28;20035;-66
2024/03/16 05:24:02;;;;;;;1.08;0.70;;;10.20;92.80;;;;;;5083303;28;20025;-66
2024/03/16 05:26:28;;;;;;;1.70;0.70;;;10.20;92.90;;;;;;5078722;28;20085;-67
2024/03/16 05:28:55;;;;;;;2.67;0.90;;;10.10;92.80;;;;;;5072196;28;20482;-65
2024/03/16 05:31:20;;;;;;;1.63;0.70;;;10.00;92.90;;;;;;5080950;28;20028;-66
2024/03/16 05:33:46;;;;;;;0.98;0.60;;;10.00;92.90;;;;;;5070466;28;20032;-64
2024/03/16 05:36:14;;;;;;;0.80;0.80;;;10.00;93.00;;;;;;5070511;28;20020;-64
2024/03/16 05:38:43;;;;;;;1.17;0.70;;;10.00;93.00;;;;;;5076402;28;20111;-65
2024/03/16 05:41:09;;;;;;;1.70;0.70;;;10.00;92.90;;;;;;5077910;28;20510;-66
2024/03/16 05:43:35;;;;;;;1.38;0.70;;;9.90;92.90;;;;;;5071614;28;20017;-66
2024/03/16 05:46:01;;;;;;;2.13;0.85;;;10.00;92.90;;;;;;5075763;28;20128;-65
2024/03/16 05:48:27;;;;;;;1.45;0.60;;;9.90;93.00;;;;;;5068955;28;20473;-65
2024/03/16 05:50:53;;;;;;;1.33;0.88;;;9.90;92.90;;;;;;5075808;28;20119;-66
2024/03/16 05:53:19;;;;;;;2.92;0.82;;;9.90;92.90;;;;;;5074906;28;20112;-65
2024/03/16 05:55:45;;;;;;;0.70;0.68;;;9.90;92.90;;;;;;5072566;28;20036;-68
2024/03/16 05:58:11;;;;;;;1.00;0.68;;;9.90;92.90;;;;;;5070951;28;20020;-65
2024/03/16 06:00:39;;;;;;;2.05;1.02;;;9.90;92.90;;;;;;5071764;28;20052;-66
2024/03/16 06:03:05;;;;;;;1.95;0.90;;;9.90;92.90;;;;;;5071689;28;20032;-67
2024/03/16 06:05:35;;;;;;;2.25;0.98;;;9.80;92.90;;;;;;5076037;28;20021;-66
2024/03/16 06:08:02;;;;;;;2.70;1.10;;;9.70;93.00;;;;;;5075651;28;20074;-66
2024/03/16 06:10:27;;;;;;;2.40;0.90;;;9.60;93.00;;;;;;5068121;28;20020;-68
2024/03/16 06:12:53;;;;;;;2.83;1.13;;;9.50;93.40;;;;;;5070421;28;20027;-67
2024/03/16 06:15:19;;;;;;;2.58;1.02;;;9.40;93.20;;;;;;5078370;28;20035;-66
2024/03/16 06:17:44;;;;;;;1.25;0.70;;;9.40;93.30;;;;;;5066315;28;20089;-66
2024/03/16 06:20:13;;;;;;;1.85;0.75;;;9.30;93.40;;;;;;5068918;28;20060;-66
2024/03/16 06:22:41;;;;;;;1.13;0.63;;;9.30;93.30;;;;;;5079995;28;20402;-65
2024/03/16 06:25:07;;;;;;;1.92;0.80;;;9.20;93.60;;;;;;5079035;28;20097;-66
2024/03/16 06:27:40;;;;;;;1.02;0.70;;;9.10;93.20;;;;;;5078885;28;20104;-66
2024/03/16 06:30:07;;;;;;;1.23;0.60;;;9.10;93.30;;;;;;5074612;28;20027;-67
2024/03/16 06:32:38;;;;;;;0.65;0.63;;;9.10;93.40;;;;;;5075181;28;20062;-65
2024/03/16 06:35:07;;;;;;;1.58;0.65;;;9.10;93.30;;;;;;5074404;28;20008;-66
2024/03/16 06:37:32;;;;;;;1.85;0.95;;;9.20;93.30;;;;;;5067370;28;20526;-68
2024/03/16 06:39:58;;;;;;;0.57;0.50;;;9.20;93.20;;;;;;5078402;28;20051;-67
2024/03/16 06:42:24;;;;;;;0.57;0.50;;;9.30;93.20;;;;;;5079327;28;20055;-68
2024/03/16 06:44:49;;;;;;;1.38;0.70;;;9.40;93.10;;;;;;5089871;28;20063;-66
2024/03/16 06:47:15;;;;;;;1.52;0.60;;;9.40;92.90;;;;;;5084267;28;20028;-66
2024/03/16 06:49:40;;;;;;;2.35;0.50;;;9.40;92.90;;;;;;5078279;28;20028;-68
2024/03/16 06:52:06;;;;;;;1.33;0.50;;;9.50;92.80;;;;;;5070348;28;20028;-67
2024/03/16 06:54:32;;;;;;;0.75;0.60;;;9.60;92.80;;;;;;5070399;28;20095;-66
2024/03/16 06:56:58;;;;;;;0.60;0.60;;;9.60;92.60;;;;;;5075498;28;20028;-65
2024/03/16 06:59:23;;;;;;;0.68;0.50;;;9.60;92.60;;;;;;5069496;28;20078;-66
2024/03/16 07:01:49;;;;;;;0.60;0.60;;;9.60;92.60;;;;;;5067618;28;20029;-67
2024/03/16 07:04:15;;;;;;;1.00;0.57;;;9.60;92.60;;;;;;5075563;28;20024;-67
2024/03/16 07:06:40;;;;;;;1.65;0.80;;;9.60;92.60;;;;;;5080719;28;20060;-67
2024/03/16 07:09:08;;;;;;;0.82;0.52;;;9.60;92.50;;;;;;5074170;28;20035;-66
2024/03/16 07:11:34;;;;;;;1.88;0.60;;;9.50;92.50;;;;;;5067958;28;20151;-67
2024/03/16 07:14:00;;;;;;;1.75;0.93;;;9.50;92.50;;;;;;5070754;28;20032;-66
2024/03/16 07:16:25;;;;;;;1.08;0.80;;;9.50;92.50;;;;;;5068515;28;20099;-66
2024/03/16 07:18:51;;;;;;;1.55;0.65;;;9.50;92.50;;;;;;5067622;28;20044;-66
2024/03/16 07:21:19;;;;;;;2.42;0.90;;;9.50;92.50;;;;;;5070755;28;20036;-67
2024/03/16 07:23:47;;;;;;;2.53;0.80;;;9.50;92.40;;;;;;5068631;28;20043;-68
2024/03/16 07:26:13;;;;;;;1.95;0.70;;;9.50;92.40;;;;;;5069041;28;20513;-67
2024/03/16 07:28:39;;;;;;;1.63;0.90;;;9.40;92.50;;;;;;5067184;28;20036;-68
2024/03/16 07:31:04;;;;;;;1.98;0.75;;;9.50;92.40;;;;;;5076187;28;20032;-68
2024/03/16 07:33:30;;;;;;;1.15;0.60;;;9.50;92.40;;;;;;5070207;28;20029;-67
2024/03/16 07:35:55;;;;;;;3.33;0.75;;;9.50;92.40;;;;;;5076361;28;20032;-66
2024/03/16 07:38:21;;;;;;;0.95;0.60;;;9.60;92.30;;;;;;5067170;28;20063;-69
2024/03/16 07:40:47;;;;;;;0.52;0.50;;;9.60;92.20;;;;;;5069858;28;20017;-69
2024/03/16 07:43:13;;;;;;;0.80;0.57;;;9.60;92.20;;;;;;5076927;28;20032;-66
2024/03/16 07:45:42;;;;;;;1.67;0.70;;;9.70;92.20;;;;;;5071665;28;20025;-66
2024/03/16 07:48:11;;;;;;;2.72;0.70;;;9.80;92.10;;;;;;5072458;28;20013;-70
2024/03/16 07:50:37;;;;;;;2.03;0.70;;;9.80;92.00;;;;;;5067366;28;20022;-66
2024/03/16 07:53:03;;;;;;;0.90;0.73;;;9.90;92.00;;;;;;5074128;28;20025;-66
2024/03/16 07:55:30;;;;;;;2.88;0.77;;;9.90;91.90;;;;;;5072190;28;20028;-67
2024/03/16 07:57:55;;;;;;;2.25;0.75;;;9.90;91.80;;;;;;5068676;28;20411;-66
2024/03/16 08:00:21;;;;;;;1.27;0.80;;;9.90;91.80;;;;;;5068655;28;20028;-66
2024/03/16 08:02:47;;;;;;;2.38;0.85;;;9.90;91.80;;;;;;5070237;28;20516;-67
2024/03/16 08:05:12;;;;;;;1.75;0.82;;;9.90;91.70;;;;;;5073771;28;20051;-69
2024/03/16 08:07:41;;;;;;;1.20;0.70;;;9.90;91.70;;;;;;5068259;28;20047;-68
2024/03/16 08:10:09;;;;;;;1.05;0.80;;;9.90;91.70;;;;;;5068699;28;20418;-68
2024/03/16 08:12:36;;;;;;;1.20;0.75;;;9.90;91.70;;;;;;5063326;28;20081;-69
2024/03/16 08:15:02;;;;;;;1.45;0.70;;;9.90;91.60;;;;;;5069106;28;20024;-68
2024/03/16 08:17:28;;;;;;;1.98;0.70;;;10.00;91.60;;;;;;5072580;28;20029;-69
2024/03/16 08:19:55;;;;;;;2.97;0.90;;;10.00;91.50;;;;;;5068372;28;20035;-70
2024/03/16 08:22:21;;;;;;;2.42;0.90;;;10.10;91.40;;;;;;5070102;28;20414;-67
2024/03/16 08:24:47;;;;;;;1.60;0.80;;;10.10;91.40;;;;;;5070044;28;20028;-69
2024/03/16 08:27:13;;;;;;;1.52;0.80;;;10.30;91.30;;;;;;5070627;28;20086;-69
2024/03/16 08:29:39;;;;;;;2.17;0.70;;;10.30;91.20;;;;;;5073672;28;20058;-68
2024/03/16 08:32:04;;;;;;;1.02;0.70;;;10.40;91.00;;;;;;5069549;28;20050;-68
2024/03/16 08:34:30;;;;;;;2.17;0.70;;;10.40;90.90;;;;;;5073603;28;20077;-69
2024/03/16 08:36:56;;;;;;;2.65;0.80;;;10.50;91.00;;;;;;5074815;28;21176;-68
2024/03/16 08:39:23;;;;;;;1.70;0.80;;;10.50;90.80;;;;;;5076139;28;20032;-67
2024/03/16 08:41:51;;;;;;;1.73;0.73;;;10.50;90.80;;;;;;5078953;28;20025;-68
2024/03/16 08:44:17;;;;;;;1.55;0.60;;;10.60;90.80;;;;;;5072216;28;20032;-65
2024/03/16 08:46:43;;;;;;;2.63;0.80;;;10.60;90.80;;;;;;5066860;28;20376;-68
2024/03/16 08:49:09;;;;;;;2.28;0.80;;;10.70;90.70;;;;;;5073740;28;20032;-67
2024/03/16 08:51:34;;;;;;;2.60;0.85;;;10.70;90.60;;;;;;5069639;28;20039;-68
2024/03/16 08:54:00;;;;;;;1.67;0.90;;;10.70;90.50;;;;;;5069993;28;20063;-67
2024/03/16 08:56:27;;;;;;;2.67;0.93;;;10.80;90.50;;;;;;5079337;28;20055;-66
2024/03/16 08:58:56;;;;;;;2.20;0.70;;;10.80;90.40;;;;;;5071791;28;20082;-70
2024/03/16 09:01:22;;;;;;;2.50;0.70;;;10.90;90.30;;;;;;5070056;28;20102;-70
2024/03/16 09:03:47;;;;;;;3.42;0.75;;;10.90;90.10;;;;;;5070276;28;20041;-67
2024/03/16 09:06:14;;;;;;;4.07;0.88;;;11.00;90.00;;;;;;5071547;28;20356;-68
2024/03/16 09:08:39;;;;;;;2.72;0.88;;;11.10;90.00;;;;;;5080110;28;20119;-67
2024/03/16 09:11:05;;;;;;;3.85;1.00;;;11.00;89.80;;;;;;5072128;28;20124;-67
2024/03/16 09:13:33;;;;;;;2.78;0.90;;;11.00;89.60;;;;;;5074319;28;20033;-69
2024/03/16 09:16:05;;;;;;;2.38;0.98;;;10.90;89.50;;;;;;5068539;28;21323;-67
2024/03/16 09:18:34;;;;;;;1.60;0.88;;;10.90;89.70;;;;;;5072961;28;20078;-67
2024/03/16 09:21:00;;;;;;;1.17;0.60;;;11.00;89.60;;;;;;5078337;28;20025;-69
2024/03/16 09:23:26;;;;;;;3.78;1.52;;;10.90;89.60;;;;;;5065891;28;20049;-68
2024/03/16 09:25:56;;;;;;;3.03;0.80;;;11.00;89.50;;;;;;5072807;28;20050;-66
2024/03/16 09:28:22;;;;;;;1.75;0.88;;;10.90;89.30;;;;;;5072525;28;20082;-65
2024/03/16 09:30:47;;;;;;;3.40;0.75;;;11.00;89.20;;;;;;5071928;28;20024;-70
2024/03/16 09:33:13;;;;;;;2.85;0.90;;;11.00;89.30;;;;;;5069541;28;20020;-67
2024/03/16 09:35:38;;;;;;;1.67;0.90;;;11.00;89.20;;;;;;5072651;28;20523;-68
2024/03/16 09:38:07;;;;;;;2.17;0.70;;;11.00;89.10;;;;;;5068131;28;20544;-67
2024/03/16 09:40:33;;;;;;;1.75;1.00;;;11.00;89.00;;;;;;5069410;28;20375;-66
2024/03/16 09:42:59;;;;;;;2.47;0.90;;;11.00;88.90;;;;;;5067311;28;20024;-67
2024/03/16 09:45:25;;;;;;;2.25;0.98;;;10.90;88.80;;;;;;5069821;28;20028;-67
2024/03/16 09:47:51;;;;;;;1.40;0.70;;;10.90;88.90;;;;;;5068471;28;20032;-66
2024/03/16 09:50:17;;;;;;;1.48;1.00;;;11.00;88.90;;;;;;5071258;28;20039;-66
2024/03/16 09:52:48;;;;;;;1.23;0.77;;;11.10;88.80;;;;;;5069383;28;20047;-68
2024/03/16 09:55:14;;;;;;;1.08;0.70;;;11.20;88.70;;;;;;5068688;28;20009;-68
2024/03/16 09:57:40;;;;;;;1.20;0.80;;;11.20;88.00;;;;;;5070939;28;20078;-68
2024/03/16 10:00:08;;;;;;;3.20;0.73;;;11.20;87.90;;;;;;5073295;28;20017;-69
2024/03/16 10:02:36;;;;;;;1.55;0.63;;;11.20;87.70;;;;;;5074256;28;20439;-68
2024/03/16 10:05:05;;;;;;;3.45;0.90;;;11.10;86.60;;;;;;5070042;28;20031;-67
2024/03/16 10:07:30;;;;;;;2.25;1.00;;;11.00;86.50;;;;;;5071190;28;20036;-67
2024/03/16 10:09:56;;;;;;;1.33;0.73;;;11.00;86.30;;;;;;5077899;28;20020;-68
2024/03/16 10:12:23;;;;;;;2.30;0.82;;;11.00;86.40;;;;;;5067468;28;20457;-67
2024/03/16 10:15:16;;;;;;;2.70;0.80;;;11.10;86.10;;;;;;5070689;28;20016;-66
2024/03/16 10:17:42;;;;;;;2.53;0.80;;;11.10;85.80;;;;;;5070801;28;20035;-66
2024/03/16 10:20:16;;;;;;;1.95;0.90;;;11.10;85.50;;;;;;5066928;28;20048;-67
2024/03/16 10:22:46;;;;;;;1.35;0.70;;;11.10;85.30;;;;;;5065308;28;23907;-67
2024/03/16 10:25:13;;;;;;;3.10;0.70;;;11.10;85.10;;;;;;5064995;28;20025;-66
2024/03/16 10:27:39;;;;;;;1.15;0.63;;;11.00;85.10;;;;;;5067621;28;20028;-67
2024/03/16 10:30:16;;;;;;;3.00;0.85;;;11.10;85.20;;;;;;5065579;28;20020;-67
2024/03/16 10:32:48;;;;;;;1.63;0.70;;;11.20;85.00;;;;;;5067187;28;20061;-66
2024/03/16 10:35:18;;;;;;;1.58;0.70;;;11.20;84.30;;;;;;5070904;28;20074;-67
2024/03/16 10:37:47;;;;;;;1.35;0.68;;;11.30;84.00;;;;;;5069126;28;20044;-66
2024/03/16 10:40:16;;;;;;;2.70;1.00;;;11.30;83.90;;;;;;5066163;28;20552;-67
2024/03/16 10:42:43;;;;;;;1.08;0.63;;;11.40;83.40;;;;;;5067685;28;20044;-68
2024/03/16 10:45:13;;;;;;;0.75;0.60;;;11.40;83.20;;;;;;5067712;28;20073;-69
2024/03/16 10:47:40;;;;;;;1.60;0.52;;;11.50;83.00;;;;;;5066181;28;20055;-67
2024/03/16 10:50:09;;;;;;;2.10;0.68;;;11.40;82.70;;;;;;5065238;28;20047;-67
2024/03/16 10:52:40;;;;;;;2.95;0.80;;;11.40;82.50;;;;;;5069356;28;20612;-68
2024/03/16 10:55:10;;;;;;;2.28;1.00;;;11.40;82.20;;;;;;5074603;28;20019;-68
2024/03/16 10:57:36;;;;;;;2.35;0.95;;;11.30;81.80;;;;;;5072405;28;20096;-67
2024/03/16 11:00:14;;;;;;;1.83;0.90;;;11.30;82.10;;;;;;5075058;28;20080;-67
2024/03/16 11:02:52;;;;;;;1.98;1.00;;;11.50;82.20;;;;;;5069073;28;20060;-67
2024/03/16 11:05:35;;;;;;;1.55;0.98;;;11.60;82.10;;;;;;5067892;28;20440;-69
2024/03/16 11:08:21;;;;;;;4.88;0.90;;;11.70;81.70;;;;;;5062311;28;20055;-70
2024/03/16 11:10:51;;;;;;;0.65;0.65;;;11.90;81.50;;;;;;5065599;28;20043;-68
2024/03/16 11:13:20;;;;;;;2.90;0.90;;;12.00;81.00;;;;;;5066497;28;20012;-67
2024/03/16 11:15:50;;;;;;;1.70;0.85;;;12.00;80.40;;;;;;5066313;28;20043;-68
2024/03/16 11:18:21;;;;;;;3.88;0.85;;;12.00;80.20;;;;;;5067766;28;20035;-70
2024/03/16 11:20:54;;;;;;;1.67;0.98;;;12.00;80.10;;;;;;5065889;28;20032;-67
2024/03/16 11:23:30;;;;;;;3.45;1.00;;;11.90;80.30;;;;;;5066105;28;20109;-67
2024/03/16 11:26:27;;;;;;;2.17;0.93;;;11.90;79.80;;;;;;5067667;28;20026;-68
2024/03/16 11:28:59;;;;;;;3.30;0.98;;;11.90;79.70;;;;;;5067118;28;20074;-67
2024/03/16 11:31:28;;;;;;;1.90;1.00;;;11.90;79.80;;;;;;5067314;28;20028;-67
2024/03/16 11:33:54;;;;;;;2.35;1.00;;;11.90;79.30;;;;;;5066133;28;20092;-70
2024/03/16 11:36:19;;;;;;;1.92;0.73;;;11.90;79.40;;;;;;5068765;28;20100;-67
2024/03/16 11:38:52;;;;;;;1.17;0.77;;;12.00;79.60;;;;;;5066350;28;20577;-68
2024/03/16 11:41:18;;;;;;;1.63;0.73;;;12.00;79.50;;;;;;5067404;28;20055;-68
2024/03/16 11:43:48;;;;;;;2.13;0.95;;;12.00;78.90;;;;;;5066393;28;20025;-69
2024/03/16 11:46:15;;;;;;;1.88;0.93;;;12.00;78.40;;;;;;5066458;28;20020;-69
2024/03/16 11:48:42;;;;;;;2.00;0.98;;;11.90;78.60;;;;;;5066424;28;20111;-67
2024/03/16 11:51:13;;;;;;;2.75;1.10;;;12.00;78.70;;;;;;5064840;28;20073;-67
2024/03/16 11:53:39;;;;;;;3.85;1.00;;;12.10;78.30;;;;;;5064192;28;20037;-67
2024/03/16 11:56:11;;;;;;;1.38;0.90;;;12.20;78.00;;;;;;5062681;28;20037;-66
2024/03/16 11:58:39;;;;;;;2.05;1.00;;;12.20;77.60;;;;;;5063946;28;20024;-66
2024/03/16 12:01:13;;;;;;;1.15;1.00;;;12.20;77.40;;;;;;5068508;28;20507;-67
2024/03/16 12:03:40;;;;;;;2.50;0.70;;;12.20;77.40;;;;;;5065594;28;20032;-67
2024/03/16 12:06:07;;;;;;;2.05;0.90;;;12.30;77.40;;;;;;5069551;28;20606;-67
2024/03/16 12:08:32;;;;;;;1.33;0.80;;;12.40;76.80;;;;;;5067277;28;20031;-68
2024/03/16 12:10:58;;;;;;;2.05;0.75;;;12.50;76.70;;;;;;5061397;28;20029;-67
2024/03/16 12:13:23;;;;;;;2.50;0.85;;;12.60;76.40;;;;;;5062614;28;20054;-67
2024/03/16 12:15:52;;;;;;;1.40;0.70;;;12.60;75.90;;;;;;5058673;28;20033;-67
2024/03/16 12:18:21;;;;;;;1.67;1.00;;;12.60;75.70;;;;;;5060084;28;20036;-66
2024/03/16 12:20:47;;;;;;;2.83;0.88;;;12.60;75.30;;;;;;5062266;28;20162;-67
2024/03/16 12:23:13;;;;;;;1.65;0.70;;;12.50;74.80;;;;;;5058466;28;20059;-67
2024/03/16 12:25:39;;;;;;;3.38;0.90;;;12.60;75.00;;;;;;5059722;28;20032;-66
2024/03/16 12:28:06;;;;;;;1.30;0.80;;;12.60;75.00;;;;;;5063378;28;20420;-67
2024/03/16 12:30:35;;;;;;;4.35;0.90;;;12.60;74.80;;;;;;5062261;28;20032;-69
2024/03/16 12:33:01;;;;;;;2.30;0.70;;;12.60;74.20;;;;;;5062001;28;20028;-68
2024/03/16 12:35:32;;;;;;;2.08;1.00;;;12.50;74.10;;;;;;5058687;28;20042;-68
2024/03/16 12:38:00;;;;;;;4.20;0.98;;;12.60;74.40;;;;;;5059226;28;20365;-67
2024/03/16 12:40:26;;;;;;;1.50;0.77;;;12.60;74.10;;;;;;5061122;28;21589;-67
2024/03/16 12:42:54;;;;;;;1.33;0.70;;;12.60;74.20;;;;;;5058314;28;20029;-68
2024/03/16 12:45:19;;;;;;;2.53;0.70;;;12.80;74.00;;;;;;5069320;28;20020;-68
2024/03/16 12:47:46;;;;;;;3.50;0.90;;;12.90;73.30;;;;;;5066209;28;20162;-66